Bath, ME (04530)

12:31 AM EST on February 28, 2015 (GMT -0500)
APRSWXNET Bath ME US | Change Station
CLOSE
Current Station
Personal Weather Station
Location: Bath, ME
Elevation: 16 ft
Nearby Weather Stations

Elev 16 ft 43.89 °N, 69.82 °W | Updated 31 minutes ago

Clear
Clear
4 °F
Feels Like 4 °F
N
0
Wind Variable Wind from NNW
Gusts 1.0 mph

Today
High -- | Low -- °F
--% Chance of Precip.
Yesterday
High -- | Low -- °F
Precip. -- in
6:18 AM 5:26 PM
Waxing Gibbous, 74% visible
Pressure 30.51 in
Visibility 10.0 miles
Clouds Clear
Windchill 4 °F
Dew Point -6 °F
Humidity 61%
Rainfall 0.00 in
Snow Depth Not available.
UV 0 out of 12
Pollen .30 out of 12
Air Quality Not available.
Flu Activity Not available.
METAR KIWI 280453Z AUTO 00000KT 10SM CLR M19/M23 A3051 RMK AO2 SLP331 T11941228 410331200

More Conditions Fewer Conditions

Pressure 30.51 in
Visibility 10.0 miles
Clouds Clear
Windchill 4 °F
Dew Point -6 °F
Humidity 61%
Rainfall 0.00 in
Snow Depth Not available.
UV 0 out of 12
Pollen .30 out of 12
Air Quality Not available.
Flu Activity Not available.
METAR KIWI 280453Z AUTO 00000KT 10SM CLR M19/M23 A3051 RMK AO2 SLP331 T11941228 410331200

More Conditions Fewer Conditions

10-Day Weather Forecast

Almanac

Astronomy

Feb. 28, 2015 Rise Set
Actual Time
Civil Twilight
Nautical Twilight
Astronomical Twilight
Moon
Length of Visible Light
Length of Day
Tomorrow will be .
, % of the Moon is Illuminated

Today's Extremes

State Highs State Lows

Community

WunderPhotos

Upload Photos

1,800,973 photos uploaded!

WunderBlogs® & News

Nearby

Air Quality

  Air Quality AQ Index Pollutant
Not available.

Snow Depth

Station Depth Elevation

Earthquake Activity

City Distance Mag. Time & Date
Minimum magnitude displayed is 2.5.

Coastal Water Temperatures

Place Temperature

Nearby Weather Stations